Airfield :
LOGIN :

Register | Disclaimer

   EN    FR    IT 

 










Legend :    VFR   Marginal VFR   IFR   Intensive IFR   Very Intensive IFR
Visi :
Ceiling :
>= 8 km
>= 3000ft
5 to 8 km
1000 to 3000 ft
1500m to 5 km
500 to 1000 ft
800 to 1500m
200 to 500 ft
< 800m
< 200 ft
Symbols :   Thunderstorms  Fog  Heavy snow  Heavy precipitations  Wind > 20 kt
SIGMETs :     Misc.  Thunderstorms  Icing  Turbulence  Mountain Waves  Volcanic Ashes







- Airport Elevation : 359 ft
- IATA code : BVA
- Download approach charts


LFOB - Beauvais

CURRENT METAR :
  • 231430Z AUTO 33013KT 9999 BKN016 BKN028 BKN045 14/12 Q1016 TEMPO 3000 SHRA BKN008 BKN015CB BECMG 34015G25KT

EXPIRED METARs :
  • 231400Z AUTO 33010KT 9999 BKN015 OVC020 14/12 Q1015 TEMPO 3000 SHRA BKN008 BKN015CB BECMG 34015G25KT
  • 231330Z AUTO 33009KT 9999 BKN013/// BKN032/// BKN066/// ///TCU 14/13 Q1014 TEMPO 3000 SHRA BKN008 BKN015CB BECMG 34015G25KT
  • 231300Z AUTO 33011KT 9999 -RA BKN012 BKN033 BKN046 14/12 Q1013 TEMPO 3000 SHRA BKN008 BKN015CB BECMG 34015G25KT
  • 231230Z AUTO 33013KT 9999 -RA BKN011/// BKN019/// BKN027/// ///CB 14/12 Q1013 TEMPO 3000 SHRA OVC008 BECMG 34015G25KT
  • 231200Z AUTO 33014KT 9999 -RA SCT011/// BKN017/// BKN022/// ///CB 14/13 Q1012 TEMPO 24015G35KT BECMG OVC008

TAF AMD TAF LFOB
Valid from the 23 at 12:00 until the 24 at 12:00 UTC


231227Z 2312/2412 34015G25KT 9999 BKN015
TEMPO 2312/2320 3000 SHRA BKN008 BKN015CB
BECMG 2321/2324 30005KT NSC
TEMPO 2403/2407 4000 BR
ATIS : +33 3 44 11 49 28
No reported NOTAMs for that airfield.
2 SIGMETs reported for the Paris FIR (LFFF) :
 
Severe turbulence
LFFF SIGMET 2 VALID 231200/231600 LFPW
LFFF PARIS FIR/UIR SEV TURB FCST WI N5030 E00345 - N4930 E00600 - N4900 E00500 - N4945 E00300 - N5030 E00345 SFC/FL050 STNR NC=
Severe turbulence
LFFF SIGMET 1 VALID 231100/231500 LFPW
LFFF PARIS FIR/UIR SEV TURB FCST WI N4945 W00015 - N5000 W00015 - N5030 E00030 - N4945 W00015 FL350/430 STNR NC=



MET'MAP, your aeronautical weather chart ! - Copyright ORBIFLY December 2007 - Disclaimer

ORBIFLY MET'MAP TEAM :

Programming & Development : Alexandra Zaïnal
Concept & Development : Baudouin d'Aumeries
Co-Development & Prog : Marc-Olivier Méhu
Technical & hardware support : Manuel Goepfert

Contact : metmap@orbifly.com




SOURCES & CREDITS :

   NOAA